Aérodrome :
LOGIN :

S'inscrire | Disclaimer

   EN    FR    IT 

 










Légende :    VFR   VFR Marginal   IFR   IFR Intensif   IFR Très Intensif
Visi : 
Plafond : 
>= 8 km
>= 3000ft
5 à 8 km
1000 à 3000 ft
1500m à 5 km
500 à 1000 ft
800 à 1500m
200 à 500 ft
< 800m
< 200 ft
Symboles :   Orages  Brouillard  Fortes neiges  Fortes précipitations  Vent > 20 kt
SIGMETs :   Divers  Orages  Givrage  Turbulence  Onde Orograph.  Cendres Volcan.






- Altitude de l'aérodrome : 187 ft


ETNW - Wunstorf AB

DERNIER METAR :
  • 061820Z 23013KT 9999 -RA FEW010 BKN012 07/05 Q1003 GRN FCST CANCEL

METARs EXPIRÉS :
  • 061720Z 23013KT 9999 FEW011 BKN013 07/05 Q1004 GRN GRN TEMPO YLO
  • 061650Z 23014KT 9999 -RA FEW012 BKN014 07/05 Q1004 GRN GRN TEMPO YLO
  • 061620Z 23013KT 9999 FEW013 BKN015 07/04 Q1004 WHT

TAF TAF ETNW
Valide du 06 à 18h jusqu'au 07 à 18h UTC


061720Z 0618/0718 22015G25KT 7000 -DZ FEW006 BKN012
TEMPO 0620/0709 27020G30KT 3000 DZRA SCT003 BKN006 OVC010 BY ETGL



MET'MAP, la Météo Aéronautique d'un coup d'oeil ! - Copyright ORBIFLY Décembre 2007 - Disclaimer

ORBIFLY MET'MAP TEAM :

Programmation & Développement : Alexandra Zaïnal
Sur une idée originale de : Baudouin d'Aumeries
Assistance à la programmation : Marc-Olivier Méhu
Soutien technique & logistique : Manuel Goepfert

Contact : metmap@orbifly.com




SOURCES & CREDITS :

   NOAA